Time;durP1;ratioP1;P1;durP2;ratioP2;P2;SDS_P1;SDS_P2;PMS_P1;PMS_P2;Temp;Humidity;BMP_temperature;BMP_pressure;BME280_temperature;BME280_humidity;BME280_pressure;Samples;Min_cycle;Max_cycle;Signal;HPM_P1;HPM_P2
2020/12/20 10:11:43;;;;;;;10.53;8.13;;;11.10;96.10;;;;;;6152975;23;20844;-85
2020/12/20 10:14:15;;;;;;;8.80;7.90;;;11.10;96.10;;;;;;6171302;23;20413;-85
2020/12/20 10:16:46;;;;;;;10.27;9.20;;;11.20;96.00;;;;;;6171046;23;20435;-86
2020/12/20 10:19:18;;;;;;;9.90;8.97;;;11.30;95.90;;;;;;6170063;23;20421;-86
2020/12/20 10:21:49;;;;;;;9.13;8.33;;;11.30;95.90;;;;;;6170933;23;20437;-86
2020/12/20 10:24:56;;;;;;;9.10;8.30;;;11.40;95.80;;;;;;6171003;23;20392;-86
2020/12/20 10:27:44;;;;;;;9.73;8.23;;;11.30;95.80;;;;;;6168953;23;20452;-85
2020/12/20 10:30:13;;;;;;;17.50;9.53;;;11.30;95.80;;;;;;6164118;23;20441;-87
2020/12/20 10:32:43;;;;;;;10.70;9.63;;;11.40;95.80;;;;;;6169592;23;20417;-85
2020/12/20 10:35:16;;;;;;;10.33;9.33;;;11.40;95.80;;;;;;6167119;23;20377;-86
2020/12/20 10:37:52;;;;;;;9.90;9.10;;;11.30;95.90;;;;;;6166680;23;20441;-86
2020/12/20 10:40:18;;;;;;;12.40;9.50;;;11.30;96.00;;;;;;6167017;23;20429;-85
2020/12/20 10:45:41;;;;;;;9.47;8.67;;;11.30;96.30;;;;;;6149237;23;20405;-86
2020/12/20 10:48:41;;;;;;;9.90;8.93;;;11.30;96.30;;;;;;6167109;23;20758;-87
2020/12/20 10:51:22;;;;;;;10.50;9.43;;;11.20;96.20;;;;;;6167284;23;20439;-86
2020/12/20 10:53:50;;;;;;;12.70;10.00;;;11.20;96.50;;;;;;6165728;23;20501;-86
2020/12/20 10:56:18;;;;;;;9.80;8.90;;;11.30;96.60;;;;;;6165968;23;20960;-86
2020/12/20 10:58:46;;;;;;;12.33;8.77;;;11.30;96.50;;;;;;6166869;23;20406;-86
2020/12/20 11:01:29;;;;;;;9.43;8.53;;;11.40;96.60;;;;;;6165995;23;20813;-86
2020/12/20 11:04:00;;;;;;;12.47;10.33;;;11.40;96.40;;;;;;6165147;23;20494;-86
2020/12/20 11:06:48;;;;;;;11.77;10.40;;;11.60;96.20;;;;;;6164534;23;20933;-86
2020/12/20 11:09:29;;;;;;;;;;;;;;;;;;;;;
2020/12/20 11:11:56;;;;;;;11.67;10.40;;;11.90;96.50;;;;;;6178242;23;20449;-87
2020/12/20 11:14:24;;;;;;;11.30;9.40;;;12.10;96.30;;;;;;6196395;23;20441;-87
2020/12/20 11:16:52;;;;;;;9.23;8.43;;;12.20;96.10;;;;;;6195987;23;20421;-86
2020/12/20 11:19:20;;;;;;;10.60;9.70;;;12.50;96.10;;;;;;6194532;23;20433;-86
2020/12/20 11:21:49;;;;;;;11.10;10.10;;;12.70;95.90;;;;;;6193108;23;20511;-86
2020/12/20 11:24:19;;;;;;;10.80;9.83;;;13.00;95.60;;;;;;6193677;23;20469;-86
2020/12/20 11:26:47;;;;;;;10.40;9.30;;;13.10;94.70;;;;;;6197086;23;20437;-87
2020/12/20 11:29:13;;;;;;;10.40;9.40;;;13.30;94.60;;;;;;6195837;23;20419;-87
2020/12/20 11:31:41;;;;;;;10.87;9.97;;;13.40;94.20;;;;;;6200641;23;20464;-87
2020/12/20 11:34:09;;;;;;;9.13;8.23;;;13.50;94.30;;;;;;6204224;23;20410;-85
2020/12/20 11:36:36;;;;;;;9.83;8.93;;;13.60;94.10;;;;;;6202282;23;20411;-85
2020/12/20 11:39:03;;;;;;;11.00;9.30;;;13.70;94.10;;;;;;6201564;23;20414;-85
2020/12/20 11:41:31;;;;;;;10.07;8.60;;;13.80;94.10;;;;;;6192689;23;20450;-85
2020/12/20 11:44:05;;;;;;;10.30;9.30;;;13.90;94.00;;;;;;6194483;23;20445;-84
2020/12/20 11:46:31;;;;;;;10.97;9.87;;;14.10;94.00;;;;;;6193911;23;20410;-85
2020/12/20 11:48:59;;;;;;;12.17;8.00;;;14.30;93.90;;;;;;6192471;23;20416;-85
2020/12/20 11:51:27;;;;;;;9.13;8.33;;;14.40;93.40;;;;;;6184424;23;20448;-85
2020/12/20 11:53:56;;;;;;;8.30;7.60;;;14.50;93.10;;;;;;6189960;23;20406;-85
2020/12/20 11:56:23;;;;;;;9.67;8.87;;;14.70;92.90;;;;;;6186381;23;20511;-86
2020/12/20 11:58:54;;;;;;;11.87;9.80;;;14.80;92.90;;;;;;6190995;23;20427;-85
2020/12/20 12:01:22;;;;;;;8.77;7.97;;;14.90;92.30;;;;;;6188818;23;20451;-86
2020/12/20 12:03:49;;;;;;;8.97;8.17;;;15.00;92.30;;;;;;6189673;23;20468;-85
2020/12/20 12:06:16;;;;;;;9.90;9.00;;;14.90;91.90;;;;;;6195826;23;20416;-86
2020/12/20 12:08:44;;;;;;;11.80;9.17;;;14.90;92.00;;;;;;6198048;23;20414;-86
2020/12/20 12:11:11;;;;;;;10.67;8.83;;;14.80;92.20;;;;;;6194232;23;20482;-84
2020/12/20 12:13:37;;;;;;;10.73;7.63;;;14.80;92.50;;;;;;6198172;23;20392;-81
2020/12/20 12:16:04;;;;;;;10.73;9.70;;;14.70;92.70;;;;;;6201936;23;20412;-83
2020/12/20 12:18:30;;;;;;;9.23;8.43;;;14.70;92.80;;;;;;6201746;23;20408;-81
2020/12/20 12:20:56;;;;;;;9.57;8.77;;;14.80;92.90;;;;;;6203903;23;20529;-82
2020/12/20 12:23:23;;;;;;;8.80;8.10;;;14.70;93.10;;;;;;6202776;23;20423;-81
2020/12/20 12:25:49;;;;;;;8.53;7.83;;;14.70;92.70;;;;;;6199650;23;20408;-81
2020/12/20 12:28:15;;;;;;;8.47;7.77;;;14.70;92.90;;;;;;6203614;23;20405;-81
2020/12/20 12:30:42;;;;;;;8.40;7.67;;;14.70;93.20;;;;;;6203390;23;20425;-81
2020/12/20 12:33:08;;;;;;;9.03;8.23;;;14.70;93.20;;;;;;6202666;23;20424;-81
2020/12/20 12:35:34;;;;;;;9.63;8.83;;;14.70;93.10;;;;;;6201994;23;20405;-81
2020/12/20 12:38:00;;;;;;;8.77;8.07;;;14.60;93.00;;;;;;6202543;23;20419;-81
2020/12/20 12:40:27;;;;;;;8.93;8.13;;;14.50;93.00;;;;;;6200839;23;20467;-81
2020/12/20 12:42:54;;;;;;;10.13;9.30;;;14.40;93.20;;;;;;6194364;23;20409;-83
2020/12/20 12:45:21;;;;;;;11.87;10.67;;;14.30;93.30;;;;;;6192659;23;20415;-84
2020/12/20 12:47:47;;;;;;;11.47;10.33;;;14.20;93.40;;;;;;6195806;23;20440;-82
2020/12/20 12:50:14;;;;;;;10.50;9.60;;;14.10;93.60;;;;;;6195565;23;20430;-83
2020/12/20 12:52:40;;;;;;;11.50;9.30;;;14.00;93.70;;;;;;6198702;23;20412;-83
2020/12/20 12:55:06;;;;;;;10.20;9.40;;;13.80;93.60;;;;;;6195335;23;20410;-84
2020/12/20 12:57:33;;;;;;;10.60;9.60;;;13.70;93.70;;;;;;6198914;23;20421;-83
2020/12/20 13:00:01;;;;;;;10.00;9.00;;;13.60;93.90;;;;;;6205067;23;20435;-82
2020/12/20 13:02:27;;;;;;;10.13;9.33;;;13.50;94.20;;;;;;6204703;23;20450;-82
2020/12/20 13:04:53;;;;;;;11.97;10.97;;;13.40;94.20;;;;;;6206623;23;20416;-82
2020/12/20 13:07:20;;;;;;;9.90;9.10;;;13.40;94.20;;;;;;6206336;23;20417;-82
2020/12/20 13:09:46;;;;;;;10.80;9.83;;;13.30;94.30;;;;;;6205942;23;20434;-82
2020/12/20 13:12:14;;;;;;;12.67;11.00;;;13.20;94.40;;;;;;6205528;23;20415;-82
2020/12/20 13:14:41;;;;;;;10.77;9.87;;;13.20;94.50;;;;;;6206191;23;20441;-82
2020/12/20 13:17:07;;;;;;;11.33;10.37;;;13.10;94.80;;;;;;6205989;23;20549;-82
2020/12/20 13:19:34;;;;;;;11.80;10.80;;;13.10;95.00;;;;;;6205398;23;20427;-82
2020/12/20 13:22:00;;;;;;;12.57;11.33;;;13.00;95.20;;;;;;6206080;23;20505;-82
2020/12/20 13:24:26;;;;;;;14.43;13.00;;;13.00;95.40;;;;;;6206088;23;20416;-82
2020/12/20 13:26:53;;;;;;;13.63;12.20;;;13.00;95.50;;;;;;6208249;23;20478;-82
2020/12/20 13:29:19;;;;;;;13.70;11.40;;;13.00;95.50;;;;;;6208186;23;20416;-82
2020/12/20 13:31:46;;;;;;;12.23;11.13;;;12.90;95.60;;;;;;6207671;23;20466;-82
2020/12/20 13:34:12;;;;;;;12.20;11.07;;;12.90;95.70;;;;;;6207625;23;20498;-84
2020/12/20 13:36:39;;;;;;;12.20;10.70;;;12.90;95.90;;;;;;6208514;23;20477;-83
2020/12/20 13:39:05;;;;;;;13.00;11.00;;;12.80;96.10;;;;;;6208719;23;20402;-83
2020/12/20 13:41:32;;;;;;;14.00;12.53;;;12.80;96.30;;;;;;6207726;23;20529;-83
2020/12/20 13:43:58;;;;;;;10.93;10.03;;;12.80;96.40;;;;;;6207048;23;20410;-83
2020/12/20 13:46:24;;;;;;;11.17;10.13;;;12.70;96.50;;;;;;6208022;23;20407;-83
2020/12/20 13:48:51;;;;;;;11.60;10.50;;;12.70;96.60;;;;;;6208100;23;20436;-83
2020/12/20 13:51:17;;;;;;;13.47;12.27;;;12.70;96.60;;;;;;6207869;23;20434;-83
2020/12/20 13:53:44;;;;;;;11.70;10.70;;;12.70;96.70;;;;;;6208037;23;20949;-83
2020/12/20 13:56:10;;;;;;;10.50;9.50;;;12.60;96.80;;;;;;6207523;23;20472;-83
2020/12/20 13:58:36;;;;;;;12.67;11.57;;;12.60;96.90;;;;;;6207781;23;20414;-82
2020/12/20 14:01:03;;;;;;;10.53;9.60;;;12.60;97.00;;;;;;6207414;23;20509;-82
2020/12/20 14:03:29;;;;;;;11.13;10.10;;;12.70;97.20;;;;;;6207645;23;20813;-82
2020/12/20 14:05:56;;;;;;;11.27;10.23;;;12.70;97.20;;;;;;6208082;23;20406;-84
2020/12/20 14:08:22;;;;;;;10.87;9.97;;;12.70;97.00;;;;;;6207466;23;20412;-82
2020/12/20 14:10:49;;;;;;;12.33;11.33;;;12.70;96.90;;;;;;6207460;23;20442;-82
2020/12/20 14:13:15;;;;;;;9.70;8.90;;;12.70;96.90;;;;;;6207394;23;20417;-82
2020/12/20 14:15:42;;;;;;;12.20;11.10;;;12.70;96.90;;;;;;6207609;23;20473;-82
2020/12/20 14:18:08;;;;;;;12.70;11.60;;;12.70;97.00;;;;;;6207565;23;20403;-82
2020/12/20 14:20:38;;;;;;;11.67;10.53;;;12.70;97.00;;;;;;6208058;23;20440;-82
2020/12/20 14:23:05;;;;;;;12.27;11.17;;;12.60;97.10;;;;;;6206943;23;20455;-82
2020/12/20 14:25:34;;;;;;;12.70;11.60;;;12.60;97.60;;;;;;6207471;23;20437;-82
2020/12/20 14:28:00;;;;;;;14.63;10.90;;;12.60;97.50;;;;;;6206976;23;20470;-82
2020/12/20 14:30:27;;;;;;;11.57;10.37;;;12.50;97.60;;;;;;6206673;23;20518;-82
2020/12/20 14:32:53;;;;;;;13.30;10.63;;;12.50;97.70;;;;;;6207355;23;20407;-82
2020/12/20 14:35:19;;;;;;;10.67;9.67;;;12.50;97.80;;;;;;6207033;23;20414;-83
2020/12/20 14:37:45;;;;;;;15.13;13.80;;;12.50;97.90;;;;;;6206917;23;20461;-82
2020/12/20 14:40:12;;;;;;;10.10;9.17;;;12.40;97.90;;;;;;6207155;23;20980;-82
2020/12/20 14:42:39;;;;;;;11.33;10.30;;;12.40;98.00;;;;;;6206776;23;20449;-82
2020/12/20 14:45:05;;;;;;;11.77;10.80;;;12.40;98.00;;;;;;6206849;23;20434;-82
2020/12/20 14:47:31;;;;;;;11.30;10.20;;;12.30;98.00;;;;;;6206479;23;20480;-82
2020/12/20 14:49:58;;;;;;;11.77;10.50;;;12.30;98.00;;;;;;6207875;23;20432;-82
2020/12/20 14:52:25;;;;;;;13.27;11.87;;;12.20;98.10;;;;;;6206943;23;20462;-82
2020/12/20 14:54:51;;;;;;;12.07;10.97;;;12.10;98.20;;;;;;6207021;23;20445;-82
2020/12/20 14:57:18;;;;;;;11.53;10.47;;;12.00;98.30;;;;;;6207175;23;20414;-82
2020/12/20 14:59:44;;;;;;;10.47;9.47;;;12.00;98.40;;;;;;6207119;23;20501;-82
2020/12/20 15:02:10;;;;;;;11.00;9.90;;;11.90;98.40;;;;;;6206495;23;20469;-82
2020/12/20 15:04:37;;;;;;;12.80;11.10;;;11.90;98.60;;;;;;6207864;23;20894;-82
2020/12/20 15:07:03;;;;;;;9.97;8.97;;;11.90;98.70;;;;;;6207820;23;20417;-82
2020/12/20 15:09:29;;;;;;;10.53;9.60;;;11.80;98.60;;;;;;6208424;23;20473;-82
2020/12/20 15:11:55;;;;;;;11.17;10.03;;;11.80;98.70;;;;;;6207080;23;20413;-82
2020/12/20 15:14:22;;;;;;;11.30;10.50;;;11.70;98.50;;;;;;6207472;23;20424;-82
2020/12/20 15:16:49;;;;;;;10.27;9.23;;;11.70;98.50;;;;;;6206955;23;20413;-81
2020/12/20 15:19:18;;;;;;;10.10;9.20;;;11.60;98.40;;;;;;6203465;23;20419;-85
2020/12/20 15:21:44;;;;;;;11.97;10.90;;;11.60;98.40;;;;;;6204130;23;20472;-81
2020/12/20 15:24:24;;;;;;;10.20;9.20;;;11.50;98.40;;;;;;6177162;23;20479;-88
2020/12/20 15:37:08;;;;;;;11.93;10.63;;;11.40;99.10;;;;;;6078359;23;20371;-87
2020/12/20 15:39:40;;;;;;;12.10;11.00;;;11.30;99.00;;;;;;6184855;23;20392;-86
2020/12/20 15:42:07;;;;;;;12.27;11.07;;;11.30;98.90;;;;;;6184095;23;20452;-87
2020/12/20 15:48:51;;;;;;;11.83;10.73;;;11.20;99.10;;;;;;6153799;23;20398;-86
2020/12/20 15:52:02;;;;;;;11.60;10.40;;;11.20;99.30;;;;;;6190879;23;20413;-86
2020/12/20 15:55:25;;;;;;;;;;;;;;;;;;;;;
2020/12/20 16:11:24;;;;;;;10.40;9.40;;;10.90;99.90;;;;;;5727084;24;20814;-86
2020/12/20 16:13:51;;;;;;;11.32;10.20;;;10.80;99.90;;;;;;5851801;24;20216;-86
2020/12/20 16:17:02;;;;;;;12.85;10.60;;;10.40;99.90;;;;;;6048532;23;20254;-87
2020/12/20 16:22:54;;;;;;;11.60;10.60;;;10.50;99.90;;;;;;6181654;23;20280;-87
2020/12/20 16:25:28;;;;;;;14.73;13.27;;;10.40;99.90;;;;;;6204428;23;20922;-86
2020/12/20 16:28:04;;;;;;;11.68;10.55;;;10.20;99.90;;;;;;6214484;23;20196;-86
2020/12/20 16:34:18;;;;;;;13.50;12.10;;;9.80;99.90;;;;;;5958261;23;20672;-86
2020/12/20 16:40:10;;;;;;;15.02;13.73;;;9.80;99.90;;;;;;6210423;23;20198;-86
2020/12/20 16:48:06;;;;;;;12.80;10.77;;;9.70;99.90;;;;;;6179078;22;20210;-84
2020/12/20 16:50:33;;;;;;;13.23;11.55;;;9.60;99.90;;;;;;6183362;23;20245;-84
2020/12/20 16:52:59;;;;;;;14.30;12.20;;;9.70;99.90;;;;;;6183022;23;20178;-83
2020/12/20 16:55:26;;;;;;;15.30;13.70;;;9.60;99.90;;;;;;6184895;23;20258;-84
2020/12/20 16:57:54;;;;;;;13.05;11.75;;;9.60;99.90;;;;;;6185184;23;20183;-84
2020/12/20 17:00:20;;;;;;;14.77;12.60;;;9.50;99.90;;;;;;6189141;23;20497;-84
2020/12/20 17:02:46;;;;;;;14.30;12.90;;;9.60;99.90;;;;;;6185048;23;20286;-84
2020/12/20 17:05:13;;;;;;;15.70;14.38;;;9.60;99.90;;;;;;6185084;23;20248;-85
2020/12/20 17:07:52;;;;;;;15.85;14.20;;;9.70;99.90;;;;;;6185182;23;20180;-88
2020/12/20 17:10:33;;;;;;;14.27;12.88;;;9.70;99.90;;;;;;6185712;23;20192;-91
2020/12/20 17:13:00;;;;;;;16.92;14.38;;;9.80;99.90;;;;;;6184166;23;20171;-90
2020/12/20 17:15:49;;;;;;;15.00;13.60;;;9.70;99.90;;;;;;6185564;23;20183;-87
2020/12/20 17:19:08;;;;;;;15.27;13.88;;;9.70;99.90;;;;;;6184924;23;20210;-88
2020/12/20 17:21:41;;;;;;;15.77;14.05;;;9.80;99.90;;;;;;6064404;23;20206;-90
2020/12/20 17:24:16;;;;;;;15.25;13.75;;;9.90;99.90;;;;;;6065125;23;20288;-91
2020/12/20 17:26:51;;;;;;;13.38;11.52;;;10.00;99.90;;;;;;6131208;23;20205;-92
2020/12/20 17:29:18;;;;;;;14.63;11.75;;;10.00;99.90;;;;;;6186912;23;20494;-89
2020/12/20 17:32:06;;;;;;;;;;;;;;;;;;;;;
2020/12/20 17:34:33;;;;;;;13.60;12.50;;;10.10;99.90;;;;;;6187528;23;20199;-85
2020/12/20 17:37:00;;;;;;;13.25;11.95;;;10.10;99.90;;;;;;6186707;23;20178;-85
2020/12/20 17:39:28;;;;;;;13.93;12.45;;;10.10;99.90;;;;;;6191001;23;20179;-85
2020/12/20 17:42:05;;;;;;;14.27;12.80;;;10.10;99.90;;;;;;6191682;23;20199;-85
2020/12/20 17:44:31;;;;;;;16.17;14.63;;;10.20;99.90;;;;;;6195530;23;20467;-84
2020/12/20 17:46:58;;;;;;;18.00;15.27;;;10.20;99.90;;;;;;6188839;23;20181;-85
2020/12/20 17:49:25;;;;;;;14.67;13.17;;;10.30;99.90;;;;;;6209304;23;20187;-85
2020/12/20 17:51:54;;;;;;;13.70;12.30;;;10.30;99.90;;;;;;6217348;23;20407;-85
2020/12/20 17:54:20;;;;;;;12.25;11.20;;;10.30;99.90;;;;;;6217591;23;20435;-84
2020/12/20 17:56:48;;;;;;;13.93;12.73;;;10.40;99.90;;;;;;6217852;23;20180;-85
2020/12/20 17:59:14;;;;;;;13.50;12.20;;;10.40;99.90;;;;;;6216206;23;20480;-86
2020/12/20 18:01:40;;;;;;;14.82;13.38;;;10.40;99.90;;;;;;6215074;23;21009;-85
2020/12/20 18:04:07;;;;;;;13.60;12.23;;;10.40;99.90;;;;;;6216152;23;20618;-85
2020/12/20 18:06:33;;;;;;;15.38;13.98;;;10.30;99.90;;;;;;6216682;23;20563;-86
2020/12/20 18:08:59;;;;;;;14.73;13.38;;;10.40;99.90;;;;;;6215744;23;20257;-86
2020/12/20 18:11:30;;;;;;;13.93;12.53;;;10.40;99.90;;;;;;6215112;23;20181;-85
2020/12/20 18:13:57;;;;;;;14.93;13.43;;;10.40;99.90;;;;;;6215652;23;20928;-86
2020/12/20 18:16:23;;;;;;;15.33;13.90;;;10.40;99.90;;;;;;6216500;23;20415;-85
2020/12/20 18:18:51;;;;;;;14.50;13.20;;;10.40;99.90;;;;;;6214474;23;20412;-84
2020/12/20 18:21:17;;;;;;;14.32;13.02;;;10.40;99.90;;;;;;6214343;23;20508;-85
2020/12/20 18:23:44;;;;;;;13.83;12.50;;;10.40;99.90;;;;;;6213623;23;20200;-85
2020/12/20 18:26:10;;;;;;;16.50;13.23;;;10.40;99.90;;;;;;6216781;23;20414;-86
2020/12/20 18:28:37;;;;;;;16.50;15.03;;;10.40;99.90;;;;;;6214559;23;20188;-85
2020/12/20 18:31:07;;;;;;;15.60;13.17;;;10.40;99.90;;;;;;6219227;23;20459;-87
2020/12/20 18:33:33;;;;;;;13.07;11.88;;;10.40;99.90;;;;;;6213877;23;20509;-85
2020/12/20 18:36:01;;;;;;;14.60;13.17;;;10.30;99.90;;;;;;6213825;23;20693;-84
2020/12/20 18:38:27;;;;;;;16.23;14.85;;;10.30;99.90;;;;;;6215198;23;20450;-84
2020/12/20 18:40:54;;;;;;;13.68;12.30;;;10.30;99.90;;;;;;6215413;23;20219;-85
2020/12/20 18:43:21;;;;;;;15.45;13.82;;;10.30;99.90;;;;;;6215115;23;20195;-85
2020/12/20 18:45:48;;;;;;;15.18;13.77;;;10.20;99.90;;;;;;6215616;23;20178;-84
2020/12/20 18:48:15;;;;;;;13.73;12.47;;;10.20;99.90;;;;;;6215226;23;20208;-85
2020/12/20 18:50:42;;;;;;;14.75;13.30;;;10.20;99.90;;;;;;6214938;23;20414;-84
2020/12/20 18:53:08;;;;;;;18.63;14.25;;;10.20;99.90;;;;;;6214692;23;20648;-84
2020/12/20 18:55:34;;;;;;;15.65;14.15;;;10.10;99.90;;;;;;6215064;23;20228;-84
2020/12/20 18:58:06;;;;;;;15.10;13.68;;;10.20;99.90;;;;;;6216557;23;20178;-84
2020/12/20 19:00:36;;;;;;;15.77;14.35;;;10.20;99.90;;;;;;6215791;23;20171;-85
2020/12/20 19:03:03;;;;;;;17.40;15.57;;;10.20;99.90;;;;;;6216098;23;20204;-83
2020/12/20 19:05:30;;;;;;;16.60;14.95;;;10.10;99.90;;;;;;6216713;23;20446;-84
2020/12/20 19:07:56;;;;;;;17.30;15.63;;;10.10;99.90;;;;;;6216060;23;20214;-84
2020/12/20 19:10:25;;;;;;;22.77;17.92;;;10.10;99.90;;;;;;6216007;23;20183;-84
2020/12/20 19:12:52;;;;;;;15.55;14.10;;;10.10;99.90;;;;;;6215288;23;20175;-85
2020/12/20 19:15:18;;;;;;;17.92;16.13;;;10.00;99.90;;;;;;6217597;23;20186;-83
2020/12/20 19:17:45;;;;;;;16.63;14.98;;;10.00;99.90;;;;;;6235878;23;20182;-83
2020/12/20 19:20:11;;;;;;;18.33;16.42;;;10.00;99.90;;;;;;6237522;23;20178;-84
2020/12/20 19:22:38;;;;;;;20.00;17.30;;;10.00;99.90;;;;;;6222671;23;20198;-84
2020/12/20 19:25:04;;;;;;;22.80;16.92;;;10.00;99.90;;;;;;6218927;23;20205;-83
2020/12/20 19:27:30;;;;;;;18.98;17.20;;;9.90;99.90;;;;;;6224392;23;20182;-83
2020/12/20 19:29:58;;;;;;;18.63;16.98;;;9.90;99.90;;;;;;6222203;23;20229;-84
2020/12/20 19:32:24;;;;;;;19.42;17.60;;;9.90;99.90;;;;;;6219531;23;20186;-84
2020/12/20 19:34:51;;;;;;;18.10;16.40;;;9.90;99.90;;;;;;6223008;23;20248;-83
2020/12/20 19:37:17;;;;;;;18.35;16.45;;;9.90;99.90;;;;;;6223523;23;20178;-84
2020/12/20 19:39:44;;;;;;;20.25;16.45;;;9.90;99.90;;;;;;6224754;23;20182;-84
2020/12/20 19:42:11;;;;;;;18.92;17.25;;;9.90;99.90;;;;;;6223214;23;20369;-86
2020/12/20 19:44:37;;;;;;;19.95;18.08;;;9.90;99.90;;;;;;6224854;23;20268;-83
2020/12/20 19:47:05;;;;;;;18.52;16.83;;;9.90;99.90;;;;;;6224397;23;20183;-84
2020/12/20 19:49:32;;;;;;;18.20;16.65;;;9.90;99.90;;;;;;6220481;23;20190;-84
2020/12/20 19:51:58;;;;;;;17.92;15.82;;;9.80;99.90;;;;;;6221738;23;20186;-85
2020/12/20 19:54:24;;;;;;;16.95;15.25;;;9.80;99.90;;;;;;6223103;23;20211;-84
2020/12/20 19:56:56;;;;;;;17.17;14.05;;;9.80;99.90;;;;;;6225418;23;20183;-84
2020/12/20 19:59:22;;;;;;;17.15;15.48;;;9.80;99.90;;;;;;6224585;23;20166;-85
2020/12/20 20:01:48;;;;;;;18.98;16.23;;;9.80;99.90;;;;;;6223857;23;20203;-85
2020/12/20 20:04:15;;;;;;;17.17;15.23;;;9.80;99.90;;;;;;6220766;23;20202;-84
2020/12/20 20:06:41;;;;;;;20.27;17.95;;;9.80;99.90;;;;;;6221104;23;20416;-82
2020/12/20 20:09:23;;;;;;;22.00;17.05;;;9.80;99.90;;;;;;6187412;23;20258;-84
2020/12/20 20:11:49;;;;;;;19.00;16.88;;;9.80;99.90;;;;;;6220846;23;20178;-83
2020/12/20 20:14:16;;;;;;;16.65;15.05;;;9.80;99.90;;;;;;6221962;23;20202;-85
2020/12/20 20:16:42;;;;;;;21.55;16.15;;;9.80;99.90;;;;;;6224340;23;20182;-84
2020/12/20 20:19:09;;;;;;;18.85;17.15;;;9.80;99.90;;;;;;6224758;23;20650;-85
2020/12/20 20:21:36;;;;;;;20.08;18.23;;;9.80;99.90;;;;;;6223678;23;20225;-85
2020/12/20 20:24:03;;;;;;;17.73;15.88;;;9.80;99.90;;;;;;6223647;23;20257;-84
2020/12/20 20:26:31;;;;;;;19.65;17.65;;;9.70;99.90;;;;;;6224181;23;20182;-84
2020/12/20 20:28:59;;;;;;;20.70;18.35;;;9.70;99.90;;;;;;6223618;23;20235;-84
2020/12/20 20:31:27;;;;;;;19.70;17.60;;;9.70;99.90;;;;;;6224467;23;20176;-84
2020/12/20 20:33:54;;;;;;;18.83;16.95;;;9.60;99.90;;;;;;6224396;23;20286;-84
2020/12/20 20:36:25;;;;;;;18.10;16.30;;;9.60;99.90;;;;;;6222662;23;20178;-84
2020/12/20 20:38:52;;;;;;;20.17;17.77;;;9.50;99.90;;;;;;6221942;23;20178;-83
2020/12/20 20:41:18;;;;;;;18.75;16.88;;;9.50;99.90;;;;;;6220373;23;20257;-82
2020/12/20 20:43:47;;;;;;;21.10;18.90;;;9.50;99.90;;;;;;6216976;23;20681;-84
2020/12/20 20:46:15;;;;;;;19.98;18.20;;;9.40;99.90;;;;;;6218873;23;20200;-83
2020/12/20 20:48:44;;;;;;;22.10;19.80;;;9.40;99.90;;;;;;6218255;23;20197;-83
2020/12/20 20:51:13;;;;;;;20.92;18.88;;;9.30;99.90;;;;;;6218113;23;20178;-83
2020/12/20 20:53:42;;;;;;;24.38;20.98;;;9.30;99.90;;;;;;6222263;23;20230;-83
2020/12/20 20:56:08;;;;;;;22.27;19.20;;;9.30;99.90;;;;;;6221841;23;20189;-84
2020/12/20 20:58:34;;;;;;;22.17;19.88;;;9.20;99.90;;;;;;6222830;23;20186;-83
2020/12/20 21:01:01;;;;;;;21.85;19.77;;;9.20;99.90;;;;;;6225293;23;20209;-83
2020/12/20 21:03:27;;;;;;;23.65;21.48;;;9.20;99.90;;;;;;6223962;23;20206;-85
2020/12/20 21:05:54;;;;;;;24.27;19.65;;;9.10;99.90;;;;;;6226576;23;20188;-84
2020/12/20 21:08:20;;;;;;;21.58;19.38;;;9.10;99.90;;;;;;6226965;23;20695;-83
2020/12/20 21:10:55;;;;;;;24.60;21.90;;;9.10;99.90;;;;;;6229856;23;20182;-83
2020/12/20 21:13:21;;;;;;;19.83;17.45;;;9.10;99.90;;;;;;6230325;23;20194;-83
2020/12/20 21:15:47;;;;;;;21.48;19.08;;;9.00;99.90;;;;;;6228311;23;20496;-84
2020/12/20 21:18:13;;;;;;;22.08;19.63;;;9.00;99.90;;;;;;6225400;23;20182;-85
2020/12/20 21:20:40;;;;;;;20.15;17.92;;;8.90;99.90;;;;;;6225323;23;20178;-85
2020/12/20 21:23:10;;;;;;;21.35;19.25;;;8.80;99.90;;;;;;6224134;23;20198;-84
2020/12/20 21:25:36;;;;;;;20.63;18.80;;;8.80;99.90;;;;;;6224166;23;20182;-84
2020/12/20 21:28:02;;;;;;;20.90;18.70;;;8.70;99.90;;;;;;6222826;23;20253;-85
2020/12/20 21:30:28;;;;;;;19.45;17.45;;;8.70;99.90;;;;;;6224145;23;20185;-83
2020/12/20 21:32:55;;;;;;;21.65;19.65;;;8.60;99.90;;;;;;6222518;23;20178;-83
2020/12/20 21:35:21;;;;;;;22.15;20.27;;;8.50;99.90;;;;;;6223742;23;20186;-84
2020/12/20 21:37:47;;;;;;;22.58;20.45;;;8.40;99.90;;;;;;6222920;23;20209;-84
2020/12/20 21:40:14;;;;;;;20.40;18.45;;;8.40;99.90;;;;;;6226580;23;20182;-81
2020/12/20 21:42:40;;;;;;;22.23;20.30;;;8.40;99.90;;;;;;6224692;23;20231;-85
2020/12/20 21:45:07;;;;;;;21.10;19.00;;;8.30;99.90;;;;;;6225366;23;20206;-85
2020/12/20 21:47:39;;;;;;;22.15;19.15;;;8.30;99.90;;;;;;6225320;23;20185;-84
2020/12/20 21:50:05;;;;;;;21.08;18.63;;;8.30;99.90;;;;;;6223471;23;20167;-85
2020/12/20 21:52:32;;;;;;;21.42;19.42;;;8.30;99.90;;;;;;6221675;23;20178;-82
2020/12/20 21:54:58;;;;;;;23.05;20.95;;;8.30;99.90;;;;;;6222785;23;20569;-85
2020/12/20 21:57:27;;;;;;;23.27;20.95;;;8.20;99.90;;;;;;6224109;23;20178;-85
2020/12/20 21:59:53;;;;;;;23.30;20.27;;;8.30;99.90;;;;;;6224355;23;20734;-84
2020/12/20 22:02:19;;;;;;;21.63;19.30;;;8.30;99.90;;;;;;6223922;23;20198;-83
2020/12/20 22:04:45;;;;;;;20.45;18.27;;;8.20;99.90;;;;;;6222947;23;20197;-83
2020/12/20 22:07:12;;;;;;;21.80;18.77;;;8.30;99.90;;;;;;6222885;23;20181;-83
2020/12/20 22:09:38;;;;;;;19.98;18.20;;;8.30;99.90;;;;;;6221064;23;20189;-83
2020/12/20 22:12:05;;;;;;;22.80;18.58;;;8.30;99.90;;;;;;6221550;23;20863;-84
2020/12/20 22:14:32;;;;;;;19.20;17.23;;;8.30;99.90;;;;;;6223490;23;20198;-85
2020/12/20 22:17:04;;;;;;;19.40;17.33;;;8.30;99.90;;;;;;6224225;23;20196;-82
2020/12/20 22:19:30;;;;;;;21.00;18.95;;;8.30;99.90;;;;;;6223530;23;20236;-84
2020/12/20 22:21:57;;;;;;;18.67;16.90;;;8.30;99.90;;;;;;6221466;23;20209;-84
2020/12/20 22:24:23;;;;;;;18.70;16.80;;;8.30;99.90;;;;;;6222061;23;20205;-84
2020/12/20 22:26:49;;;;;;;18.45;16.52;;;8.30;99.90;;;;;;6225272;23;20182;-84
2020/12/20 22:29:15;;;;;;;19.23;17.33;;;8.40;99.90;;;;;;6224972;23;20201;-83
2020/12/20 22:31:42;;;;;;;16.48;14.85;;;8.30;99.90;;;;;;6224306;23;20178;-83
2020/12/20 22:34:09;;;;;;;19.77;17.58;;;8.40;99.90;;;;;;6225465;23;20201;-84
2020/12/20 22:36:35;;;;;;;17.17;15.55;;;8.40;99.90;;;;;;6225629;23;20182;-84
2020/12/20 22:39:01;;;;;;;18.30;16.50;;;8.40;99.90;;;;;;6224463;23;20185;-85
2020/12/20 22:41:27;;;;;;;18.40;16.50;;;8.40;99.90;;;;;;6224698;23;20202;-85
2020/12/20 22:43:53;;;;;;;15.30;13.68;;;8.40;99.90;;;;;;6225418;23;20197;-85
2020/12/20 22:46:20;;;;;;;14.73;13.15;;;8.40;99.90;;;;;;6226884;23;20178;-85
2020/12/20 22:48:47;;;;;;;14.52;13.13;;;8.50;99.90;;;;;;6226272;23;20186;-85
2020/12/20 22:51:15;;;;;;;14.82;13.50;;;8.50;99.90;;;;;;6226843;23;20237;-85
2020/12/20 22:53:41;;;;;;;13.82;12.63;;;8.50;99.90;;;;;;6225547;23;20198;-83
2020/12/20 22:56:07;;;;;;;14.15;12.68;;;8.60;99.90;;;;;;6224332;23;20236;-82
2020/12/20 22:58:34;;;;;;;10.60;9.75;;;8.60;99.90;;;;;;6223646;23;20178;-83
2020/12/20 23:01:00;;;;;;;13.05;11.70;;;8.60;99.90;;;;;;6222282;23;20185;-83
2020/12/20 23:03:26;;;;;;;14.23;11.05;;;8.60;99.90;;;;;;6223467;23;20252;-82
2020/12/20 23:05:54;;;;;;;12.48;11.20;;;8.70;99.90;;;;;;6224852;23;20197;-83
2020/12/20 23:08:20;;;;;;;13.05;11.70;;;8.70;99.90;;;;;;6224335;23;20178;-83
2020/12/20 23:10:46;;;;;;;12.65;11.00;;;8.70;99.90;;;;;;6222118;23;20178;-83
2020/12/20 23:13:13;;;;;;;9.77;8.98;;;8.70;99.90;;;;;;6235961;23;20165;-81
2020/12/20 23:15:39;;;;;;;10.50;9.45;;;8.80;99.90;;;;;;6237142;23;20182;-80
2020/12/20 23:18:06;;;;;;;9.80;7.32;;;8.80;99.90;;;;;;6222245;23;20182;-81
2020/12/20 23:20:33;;;;;;;9.82;7.72;;;8.80;99.90;;;;;;6221353;23;20189;-82
2020/12/20 23:23:00;;;;;;;8.30;6.57;;;8.80;99.90;;;;;;6219203;23;20208;-83
2020/12/20 23:25:26;;;;;;;8.18;7.45;;;8.80;99.90;;;;;;6220072;23;20178;-83
2020/12/20 23:27:53;;;;;;;8.57;7.53;;;8.80;99.90;;;;;;6221648;23;20181;-83
2020/12/20 23:30:19;;;;;;;7.85;7.13;;;8.70;99.90;;;;;;6222045;23;20184;-82
2020/12/20 23:32:45;;;;;;;7.00;6.40;;;8.80;99.90;;;;;;6220464;23;20178;-81
2020/12/20 23:35:11;;;;;;;8.25;7.60;;;8.80;99.90;;;;;;6221315;23;20198;-82
2020/12/20 23:37:40;;;;;;;6.53;6.03;;;8.80;99.90;;;;;;6220692;23;20184;-82
2020/12/20 23:40:08;;;;;;;6.07;5.57;;;8.80;99.90;;;;;;6221347;23;20548;-83
2020/12/20 23:42:34;;;;;;;5.80;5.30;;;8.80;99.90;;;;;;6220661;23;20228;-83